Time;durP1;ratioP1;P1;durP2;ratioP2;P2;SDS_P1;SDS_P2;PMS_P1;PMS_P2;Temp;Humidity;BMP_temperature;BMP_pressure;BME280_temperature;BME280_humidity;BME280_pressure;Samples;Min_cycle;Max_cycle;Signal;HPM_P1;HPM_P2
2023/01/12 05:03:59;;;;;;;24.00;11.50;;;;;;;1.28;99.08;101335.14;106682;1291;1002544;-59
2023/01/12 05:06:26;;;;;;;23.50;10.80;;;;;;;3.65;83.87;101318.68;107665;1293;22004;-60
2023/01/12 05:11:39;;;;;;;18.70;9.30;;;;;;;4.60;73.39;101316.42;107679;1292;22879;-61
2023/01/12 05:14:05;;;;;;;21.90;9.60;;;;;;;4.96;71.44;101321.88;107676;1293;22055;-72
2023/01/12 05:16:30;;;;;;;18.60;6.90;;;;;;;5.14;70.02;101321.99;107548;1290;331940;-72
2023/01/12 05:18:58;;;;;;;18.40;6.30;;;;;;;5.27;69.05;101329.27;107711;1290;22003;-72
2023/01/12 05:21:23;;;;;;;16.20;6.00;;;;;;;5.39;68.22;101333.19;107756;1290;22002;-72
2023/01/12 05:23:50;;;;;;;11.70;5.00;;;;;;;5.40;67.97;101334.27;107713;1290;21992;-59
2023/01/12 05:26:16;;;;;;;15.00;5.30;;;;;;;5.39;68.06;101340.70;107706;1290;22745;-70
2023/01/12 05:28:42;;;;;;;14.80;4.00;;;;;;;5.45;67.57;101356.52;107874;1290;21993;-68
2023/01/12 05:31:09;;;;;;;78.90;7.90;;;;;;;5.37;67.42;101362.58;107710;1290;22008;-69
2023/01/12 05:33:36;;;;;;;18.00;5.00;;;;;;;5.46;67.66;101359.13;107744;1291;21998;-69
2023/01/12 05:36:06;;;;;;;16.90;4.70;;;;;;;5.71;66.69;101353.80;107051;1291;1002936;-70
2023/01/12 05:38:32;;;;;;;;;;;;;;;5.65;66.21;101352.27;107729;1290;22014;-59
2023/01/12 05:40:59;;;;;;;36.80;7.40;;;;;;;5.69;65.39;101345.95;107710;1290;22108;-58
2023/01/12 05:46:10;;;;;;;20.70;4.30;;;;;;;5.63;64.80;101335.17;107757;1290;21996;-70
2023/01/12 05:48:37;;;;;;;9.90;3.70;;;;;;;5.64;64.74;101336.58;107842;1290;22049;-71
2023/01/12 05:51:04;;;;;;;21.60;4.40;;;;;;;5.64;64.39;101340.23;107942;1290;21989;-71
2023/01/12 05:53:30;;;;;;;16.00;4.40;;;;;;;5.65;64.60;101338.18;107867;1290;21959;-71
2023/01/12 05:55:56;;;;;;;11.20;3.90;;;;;;;5.70;64.36;101335.14;107836;1290;21998;-59
2023/01/12 05:58:22;;;;;;;18.90;4.00;;;;;;;5.67;64.33;101336.83;107069;1290;1002721;-71
2023/01/12 06:00:47;;;;;;;12.60;3.60;;;;;;;5.66;64.36;101340.29;107831;1290;21996;-58
2023/01/12 06:03:13;;;;;;;14.00;3.60;;;;;;;5.75;63.96;101340.50;107793;1290;22105;-71
2023/01/12 06:05:39;;;;;;;19.20;4.90;;;;;;;5.79;63.71;101335.02;107800;1290;21997;-58
2023/01/12 06:08:05;;;;;;;15.80;4.60;;;;;;;5.82;63.60;101336.64;107826;1290;22003;-59
2023/01/12 06:10:33;;;;;;;9.30;3.80;;;;;;;5.83;63.47;101335.42;107746;1290;21990;-71
2023/01/12 06:15:44;;;;;;;18.00;4.20;;;;;;;5.83;63.27;101346.05;107845;1290;21989;-73
2023/01/12 06:18:10;;;;;;;10.60;3.40;;;;;;;5.82;63.09;101344.45;107842;1290;22001;-72
2023/01/12 06:20:36;;;;;;;22.20;3.60;;;;;;;5.85;62.91;101349.42;107729;1290;22140;-72
2023/01/12 06:23:02;;;;;;;21.20;5.20;;;;;;;5.86;63.09;101346.83;107721;1286;22011;-72
2023/01/12 06:25:28;;;;;;;18.90;4.80;;;;;;;5.79;63.02;101344.75;107743;1290;21992;-72
2023/01/12 06:27:55;;;;;;;17.60;4.30;;;;;;;5.76;63.13;101338.41;107786;1290;22007;-59
2023/01/12 06:30:24;;;;;;;13.30;3.90;;;;;;;5.76;62.73;101331.63;107970;1290;22014;-70
2023/01/12 06:32:50;;;;;;;18.40;5.90;;;;;;;5.78;62.45;101335.16;107858;1290;22461;-70
2023/01/12 06:35:17;;;;;;;20.10;3.70;;;;;;;5.79;62.39;101325.59;107710;1290;22022;-60
2023/01/12 06:37:47;;;;;;;19.10;5.00;;;;;;;5.67;62.47;101325.52;107799;1290;22461;-59
2023/01/12 06:40:13;;;;;;;17.60;4.70;;;;;;;5.60;62.56;101340.84;107700;1290;21998;-59
2023/01/12 06:42:40;;;;;;;16.00;4.30;;;;;;;5.58;62.78;101353.85;107738;1290;21987;-59
2023/01/12 06:45:07;;;;;;;11.70;3.80;;;;;;;5.58;62.85;101369.35;107800;1290;23776;-70
2023/01/12 06:47:33;;;;;;;15.70;4.30;;;;;;;5.59;62.59;101375.30;107796;1290;21988;-69
2023/01/12 06:49:58;;;;;;;27.40;6.20;;;;;;;5.61;62.87;101373.61;107757;1290;21993;-60
2023/01/12 06:52:25;;;;;;;21.40;4.10;;;;;;;5.69;62.58;101378.16;107726;1290;21997;-59
2023/01/12 06:54:51;;;;;;;14.80;3.70;;;;;;;5.75;62.22;101383.50;107843;1290;22001;-60
2023/01/12 06:57:17;;;;;;;13.90;3.30;;;;;;;5.63;62.28;101383.75;107947;1290;21994;-68
2023/01/12 06:59:43;;;;;;;13.20;4.00;;;;;;;5.56;62.51;101377.48;107816;1290;22031;-59
2023/01/12 07:02:12;;;;;;;9.10;3.20;;;;;;;5.56;62.81;101379.92;107718;1290;21989;-59
2023/01/12 07:04:39;;;;;;;13.30;3.70;;;;;;;5.57;62.86;101380.83;107805;1290;22450;-68
2023/01/12 07:07:06;;;;;;;16.90;3.60;;;;;;;5.60;62.67;101384.54;107802;1290;21992;-70
2023/01/12 07:09:34;;;;;;;14.90;5.20;;;;;;;5.60;62.59;101382.98;107716;1290;22014;-69
2023/01/12 12:47:58;;;;;;;21.20;8.00;;;;;;;4.97;77.45;101304.16;106763;1294;1015119;-72
2023/01/12 12:51:05;;;;;;;19.30;8.10;;;;;;;5.25;74.85;101303.64;107635;1291;22063;-72
2023/01/12 12:53:34;;;;;;;26.20;8.90;;;;;;;5.48;73.13;101299.48;107664;1294;23755;-60
2023/01/12 12:56:03;;;;;;;18.70;6.80;;;;;;;5.72;71.92;101295.32;107599;1292;201061;-61
2023/01/12 12:58:38;;;;;;;11.40;5.00;;;;;;;5.86;71.11;101291.27;107766;1292;22001;-60
2023/01/12 13:01:19;;;;;;;15.90;5.70;;;;;;;5.94;70.07;101287.77;107716;1292;22053;-72
2023/01/12 13:03:46;;;;;;;11.60;4.20;;;;;;;6.01;69.38;101280.11;107886;1289;21989;-72
2023/01/12 13:06:24;;;;;;;16.50;3.50;;;;;;;6.04;68.39;101283.66;107990;1289;21990;-72
2023/01/12 13:08:52;;;;;;;12.00;3.50;;;;;;;6.04;68.02;101301.98;108025;1290;22096;-60
2023/01/12 13:11:18;;;;;;;14.70;4.50;;;;;;;6.08;67.60;101303.61;107797;1289;22013;-60
2023/01/12 13:13:57;;;;;;;22.40;4.50;;;;;;;6.14;67.18;101295.90;107815;1290;22230;-61
2023/01/12 13:16:26;;;;;;;14.40;4.60;;;;;;;6.33;66.57;101298.91;107836;1289;22114;-72
2023/01/12 13:18:53;;;;;;;12.90;4.60;;;;;;;6.38;65.94;101311.38;107867;1289;21985;-61
2023/01/12 13:21:41;;;;;;;23.70;5.80;;;;;;;6.46;65.95;101318.66;107700;1290;22134;-62
2023/01/12 13:24:10;;;;;;;11.10;3.50;;;;;;;6.50;65.08;101319.79;107837;1290;22017;-65
2023/01/12 13:26:51;;;;;;;15.60;4.60;;;;;;;6.51;64.91;101318.60;107722;1290;21998;-60
2023/01/12 13:29:23;;;;;;;10.80;3.80;;;;;;;6.53;64.53;101314.98;107872;1290;22003;-72
2023/01/12 13:31:49;;;;;;;19.20;4.00;;;;;;;6.51;64.31;101316.69;107697;1290;22113;-72
2023/01/12 13:34:30;;;;;;;13.30;3.60;;;;;;;6.47;64.28;101323.92;107682;1290;22036;-72
2023/01/12 14:56:58;;;;;;;16.60;4.90;;;;;;;5.12;62.94;101314.77;107345;1289;547907;-71
2023/01/12 14:59:28;;;;;;;16.70;4.80;;;;;;;6.17;61.28;101309.73;107711;1292;22005;-72
2023/01/12 15:02:11;;;;;;;14.60;4.30;;;;;;;6.18;61.12;101315.52;107583;1294;21994;-72
2023/01/12 15:04:57;;;;;;;14.60;4.20;;;;;;;6.16;60.62;101325.73;107537;1294;23107;-60
2023/01/12 15:07:35;;;;;;;11.80;4.80;;;;;;;6.13;60.80;101324.97;106676;1294;1003203;-59
2023/01/12 15:10:08;;;;;;;17.80;5.50;;;;;;;6.08;60.66;101327.32;107381;1292;393882;-71
2023/01/12 15:12:37;;;;;;;24.80;5.40;;;;;;;6.05;60.43;101336.65;107863;1292;22027;-59
2023/01/12 15:15:18;;;;;;;24.40;6.20;;;;;;;5.97;60.26;101331.93;107807;1292;22004;-71
2023/01/12 15:26:00;;;;;;;9.40;4.60;;;;;;;5.99;60.77;101338.92;107798;1288;22161;-59
2023/01/12 15:28:30;;;;;;;17.20;4.00;;;;;;;6.00;60.78;101337.38;107727;1291;21998;-70
2023/01/12 15:30:55;;;;;;;12.90;4.00;;;;;;;6.01;60.95;101340.40;107069;1291;1002717;-59
2023/01/12 15:33:21;;;;;;;14.30;4.40;;;;;;;6.01;60.75;101346.50;107765;1291;22020;-59
2023/01/12 15:35:47;;;;;;;13.00;4.30;;;;;;;5.97;60.70;101347.79;107749;1291;22015;-70
2023/01/12 15:38:13;;;;;;;10.40;5.00;;;;;;;5.94;60.73;101347.73;107757;1291;22035;-70
2023/01/12 15:40:39;;;;;;;11.20;4.00;;;;;;;5.91;60.52;101346.80;107740;1289;22003;-71
2023/01/12 15:43:09;;;;;;;12.60;4.80;;;;;;;5.90;60.53;101349.20;107705;1290;22011;-71
2023/01/12 15:45:39;;;;;;;19.30;5.40;;;;;;;5.88;60.51;101353.15;107732;1291;22004;-59
2023/01/12 15:48:05;;;;;;;14.70;4.60;;;;;;;5.86;61.06;101348.41;107810;1291;22017;-70
2023/01/12 15:50:42;;;;;;;13.00;4.70;;;;;;;5.90;60.63;101345.89;106996;1291;1002862;-71
2023/01/12 15:53:20;;;;;;;10.50;4.50;;;;;;;5.84;60.39;101348.71;107741;1290;22040;-71
2023/01/12 15:55:47;;;;;;;15.20;4.20;;;;;;;5.90;60.63;101348.33;107677;1290;22008;-60
2023/01/12 15:58:13;;;;;;;18.40;5.10;;;;;;;5.95;60.53;101345.48;107722;1290;21993;-71
2023/01/12 16:00:39;;;;;;;15.90;5.40;;;;;;;5.95;59.89;101349.30;107794;1290;22035;-71
2023/01/12 16:03:05;;;;;;;15.40;4.70;;;;;;;5.93;60.17;101348.92;107800;1290;22090;-61
2023/01/12 16:05:31;;;;;;;12.60;4.90;;;;;;;5.89;59.96;101342.02;107819;1290;21993;-70
2023/01/12 22:11:13;;;;;;;22.10;9.90;;;;;;;4.05;80.35;101347.83;107420;1283;1002613;-59
2023/01/12 22:13:39;;;;;;;24.40;10.40;;;;;;;4.53;74.89;101340.89;108168;1285;22011;-59
2023/01/12 22:16:08;;;;;;;24.80;11.60;;;;;;;4.76;73.32;101342.05;108200;1285;21983;-69
2023/01/12 22:18:35;;;;;;;23.20;11.50;;;;;;;4.93;72.06;101343.02;108181;1284;22745;-70
2023/01/12 22:21:02;;;;;;;21.30;8.90;;;;;;;5.09;71.28;101342.56;108154;1283;285978;-59
2023/01/12 22:23:28;;;;;;;18.80;7.00;;;;;;;5.26;70.26;101340.56;108388;1282;21985;-60
2023/01/12 22:25:54;;;;;;;21.30;8.20;;;;;;;5.37;69.79;101337.33;108373;1282;21991;-67
2023/01/12 22:28:20;;;;;;;18.50;6.10;;;;;;;5.48;69.32;101341.08;108372;1282;21985;-59
2023/01/12 22:30:45;;;;;;;17.30;5.60;;;;;;;5.56;68.57;101341.79;107506;1278;1003279;-60
2023/01/12 22:33:11;;;;;;;12.00;5.20;;;;;;;5.60;68.24;101340.83;108396;1283;21982;-70
2023/01/12 22:35:38;;;;;;;16.90;5.50;;;;;;;5.63;67.66;101337.08;108374;1280;22453;-70
2023/01/12 22:38:04;;;;;;;18.10;5.80;;;;;;;5.71;67.27;101333.27;108370;1283;21988;-69
2023/01/12 22:40:30;;;;;;;14.60;5.80;;;;;;;5.77;67.15;101330.25;108403;1283;22020;-60
2023/01/12 22:45:41;;;;;;;13.40;5.70;;;;;;;5.84;66.59;101330.39;108382;1283;21984;-59
2023/01/12 22:48:07;;;;;;;14.60;5.70;;;;;;;5.85;66.30;101324.88;108325;1282;21986;-59
2023/01/12 22:50:33;;;;;;;13.30;5.90;;;;;;;5.88;65.96;101324.05;108341;1283;21983;-69
2023/01/12 22:52:59;;;;;;;15.80;6.20;;;;;;;5.89;65.89;101321.82;108383;1283;21992;-69
2023/01/12 22:55:25;;;;;;;14.80;6.00;;;;;;;5.88;65.27;101314.48;108377;1283;21989;-70
2023/01/12 22:57:51;;;;;;;15.50;5.00;;;;;;;5.86;65.12;101314.09;108362;1283;21978;-61
2023/01/12 23:00:17;;;;;;;17.90;5.80;;;;;;;5.84;64.94;101309.16;108368;1283;21989;-70
2023/01/12 23:03:01;;;;;;;10.60;4.50;;;;;;;5.84;64.99;101306.91;108422;1283;21988;-59
2023/01/12 23:05:32;;;;;;;17.90;5.80;;;;;;;5.87;64.92;101305.07;108370;1282;21980;-70
2023/01/12 23:07:58;;;;;;;14.50;5.90;;;;;;;5.90;64.73;101306.00;108388;1283;21987;-59
2023/01/12 23:10:24;;;;;;;14.80;5.90;;;;;;;5.91;64.69;101310.02;108364;1283;21980;-60
2023/01/12 23:15:44;;;;;;;21.40;6.10;;;;;;;5.93;64.18;101311.28;108354;1283;21985;-59
2023/01/12 23:18:11;;;;;;;14.90;6.40;;;;;;;5.95;64.06;101311.31;108225;1283;21983;-70
2023/01/12 23:20:38;;;;;;;20.60;7.40;;;;;;;5.92;63.57;101311.97;108197;1283;21997;-58
2023/01/12 23:23:04;;;;;;;15.50;6.80;;;;;;;5.91;63.39;101311.93;108211;1283;21995;-60
2023/01/12 23:25:31;;;;;;;15.70;6.60;;;;;;;5.91;63.48;101317.52;108204;1283;21982;-70
2023/01/12 23:27:58;;;;;;;15.30;7.40;;;;;;;5.90;63.54;101314.70;108305;1283;21983;-60
2023/01/12 23:30:23;;;;;;;13.90;6.50;;;;;;;5.94;63.24;101308.53;108324;1283;24413;-59
2023/01/12 23:32:50;;;;;;;16.60;6.80;;;;;;;5.96;63.05;101309.25;108282;1283;22021;-59
2023/01/12 23:35:16;;;;;;;16.70;6.60;;;;;;;5.94;62.83;101312.54;108274;1283;21981;-59
2023/01/12 23:37:43;;;;;;;15.30;6.70;;;;;;;5.92;62.68;101311.59;107404;1283;1002998;-59
2023/01/12 23:40:09;;;;;;;15.90;6.60;;;;;;;5.91;62.71;101309.16;108195;1283;21987;-60
2023/01/12 23:42:35;;;;;;;17.40;6.10;;;;;;;5.91;62.70;101306.70;108252;1280;21986;-60
2023/01/12 23:45:01;;;;;;;13.40;6.30;;;;;;;5.92;62.74;101306.38;108283;1283;22015;-70
2023/01/12 23:47:28;;;;;;;15.50;5.90;;;;;;;5.93;62.62;101302.75;108261;1283;21980;-59
2023/01/12 23:49:53;;;;;;;12.50;5.70;;;;;;;5.97;62.60;101300.21;108207;1283;21977;-66
2023/01/12 23:52:19;;;;;;;15.90;5.90;;;;;;;6.00;62.50;101297.33;108241;1283;21985;-70
2023/01/12 23:54:45;;;;;;;17.40;6.70;;;;;;;5.98;61.70;101294.13;108218;1283;22025;-59
2023/01/12 23:57:11;;;;;;;15.60;7.70;;;;;;;5.92;61.70;101290.02;108331;1283;21994;-70
2023/01/12 23:59:37;;;;;;;18.50;6.80;;;;;;;5.87;61.63;101284.15;108265;1276;21984;-71
